Time;durP1;ratioP1;P1;durP2;ratioP2;P2;SDS_P1;SDS_P2;PMS_P1;PMS_P2;Temp;Humidity;BMP_temperature;BMP_pressure;BME280_temperature;BME280_humidity;BME280_pressure;Samples;Min_cycle;Max_cycle;Signal;HPM_P1;HPM_P2
2022/05/26 00:02:20;;;;;;;7.67;3.50;;;19.70;99.90;;;;;;5072505;28;20214;-68
2022/05/26 00:04:48;;;;;;;10.10;4.03;;;19.10;99.90;;;;;;5072317;28;20263;-68
2022/05/26 00:07:16;;;;;;;10.00;3.70;;;19.10;99.90;;;;;;5072206;28;20188;-67
2022/05/26 00:09:43;;;;;;;5.50;3.43;;;19.30;99.90;;;;;;5072117;28;20193;-68
2022/05/26 00:12:12;;;;;;;7.40;4.73;;;19.40;99.90;;;;;;5072434;28;20248;-68
2022/05/26 00:14:41;;;;;;;7.10;4.07;;;19.20;99.90;;;;;;5072405;28;20542;-68
2022/05/26 00:17:08;;;;;;;8.43;4.83;;;19.60;99.90;;;;;;5071995;28;20303;-68
2022/05/26 00:19:36;;;;;;;11.57;6.93;;;20.30;99.90;;;;;;5072462;28;20176;-68
2022/05/26 00:22:04;;;;;;;9.97;6.87;;;20.30;99.90;;;;;;5068489;28;20222;-68
2022/05/26 00:24:32;;;;;;;9.83;7.80;;;19.90;99.90;;;;;;5057568;28;20184;-68
2022/05/26 00:27:00;;;;;;;12.47;7.90;;;20.20;99.90;;;;;;5053421;28;20599;-68
2022/05/26 00:29:27;;;;;;;13.30;7.27;;;20.60;99.90;;;;;;5070976;28;20175;-68
2022/05/26 00:31:55;;;;;;;11.83;8.47;;;21.30;99.90;;;;;;5072199;28;20183;-68
2022/05/26 00:34:22;;;;;;;14.00;8.67;;;21.60;99.90;;;;;;5071547;28;20237;-69
2022/05/26 00:36:49;;;;;;;13.30;8.57;;;21.80;99.90;;;;;;5071561;28;20710;-68
2022/05/26 00:39:22;;;;;;;16.47;8.97;;;21.90;99.90;;;;;;5071973;28;20259;-69
2022/05/26 00:41:55;;;;;;;11.40;7.43;;;21.80;99.90;;;;;;5072049;28;20215;-69
2022/05/26 00:44:23;;;;;;;12.50;7.77;;;22.30;99.90;;;;;;5070813;28;20210;-69
2022/05/26 00:47:05;;;;;;;12.30;8.07;;;22.20;99.90;;;;;;5071795;28;20611;-68
2022/05/26 00:49:51;;;;;;;10.80;7.57;;;21.50;99.90;;;;;;5071939;28;20179;-68
2022/05/26 00:52:24;;;;;;;15.17;6.90;;;21.30;99.90;;;;;;5071990;28;20605;-68
2022/05/26 00:54:54;;;;;;;7.77;6.20;;;21.90;99.90;;;;;;5071868;28;20198;-67
2022/05/26 00:57:45;;;;;;;13.03;6.20;;;22.10;99.90;;;;;;5071544;28;20187;-68
2022/05/26 01:00:19;;;;;;;10.23;4.77;;;22.40;99.90;;;;;;5071607;28;20187;-68
2022/05/26 01:02:58;;;;;;;6.57;5.03;;;21.90;99.90;;;;;;5071601;28;20281;-67
2022/05/26 01:05:32;;;;;;;8.90;5.67;;;21.90;99.90;;;;;;5071719;28;20542;-69
2022/05/26 01:08:00;;;;;;;14.23;5.10;;;22.00;99.90;;;;;;5071322;28;20645;-69
2022/05/26 01:10:27;;;;;;;5.57;3.37;;;22.00;99.90;;;;;;5071499;28;20706;-67
2022/05/26 01:12:56;;;;;;;6.80;3.93;;;22.50;99.90;;;;;;5071753;28;20172;-67
2022/05/26 01:15:25;;;;;;;6.50;3.67;;;22.60;99.90;;;;;;5071036;28;20205;-67
2022/05/26 01:18:13;;;;;;;6.57;3.90;;;21.90;99.90;;;;;;5070921;28;20230;-68
2022/05/26 01:20:58;;;;;;;8.23;4.70;;;21.20;99.90;;;;;;5071575;28;20543;-67
2022/05/26 01:24:02;;;;;;;11.53;4.83;;;21.20;99.90;;;;;;5071487;28;20179;-66
2022/05/26 01:26:47;;;;;;;7.53;4.57;;;21.50;99.90;;;;;;5071580;28;20178;-68
2022/05/26 01:29:14;;;;;;;6.57;3.27;;;21.90;99.90;;;;;;5071537;28;20233;-67
2022/05/26 01:32:16;;;;;;;6.13;3.40;;;22.40;99.90;;;;;;5071584;28;20176;-69
2022/05/26 01:35:01;;;;;;;5.37;2.43;;;22.50;99.90;;;;;;5075897;28;20637;-68
2022/05/26 01:37:39;;;;;;;4.27;2.53;;;22.80;99.90;;;;;;5075565;28;20532;-68
2022/05/26 01:40:21;;;;;;;8.07;3.00;;;23.30;99.90;;;;;;5075373;28;20203;-70
2022/05/26 01:42:54;;;;;;;5.47;2.77;;;23.20;99.90;;;;;;5075422;28;20192;-69
2022/05/26 01:45:40;;;;;;;6.17;2.57;;;23.40;99.90;;;;;;5075194;28;20180;-69
2022/05/26 01:48:17;;;;;;;3.20;2.37;;;23.20;99.90;;;;;;5074145;28;20222;-70
2022/05/26 01:50:50;;;;;;;3.23;2.13;;;23.70;99.90;;;;;;5075279;28;20309;-68
2022/05/26 01:53:23;;;;;;;6.00;2.10;;;23.70;99.90;;;;;;5075300;28;20255;-68
2022/05/26 01:55:56;;;;;;;2.87;2.17;;;23.30;99.90;;;;;;5074948;28;20653;-68
2022/05/26 01:58:47;;;;;;;6.47;2.10;;;22.50;99.90;;;;;;5075252;28;20171;-68
2022/05/26 02:01:19;;;;;;;6.20;2.50;;;22.90;99.90;;;;;;5074965;28;20208;-69
2022/05/26 02:03:48;;;;;;;3.53;1.63;;;22.90;99.90;;;;;;5075061;28;20191;-69
2022/05/26 02:06:31;;;;;;;3.73;1.90;;;24.00;99.90;;;;;;5074429;28;20634;-68
2022/05/26 02:09:07;;;;;;;4.27;2.40;;;24.30;99.90;;;;;;5074885;28;20691;-68
2022/05/26 02:11:50;;;;;;;5.70;1.80;;;24.30;99.90;;;;;;5074886;28;20645;-69
2022/05/26 02:14:44;;;;;;;5.77;2.03;;;24.60;99.90;;;;;;5074786;28;20183;-69
2022/05/26 02:17:29;;;;;;;6.77;2.00;;;24.50;99.90;;;;;;5074180;28;20227;-69
2022/05/26 02:20:26;;;;;;;4.30;1.73;;;24.50;99.90;;;;;;5074844;28;20255;-68
2022/05/26 02:23:06;;;;;;;4.90;2.10;;;23.60;99.90;;;;;;5054576;28;20272;-67
2022/05/26 02:25:34;;;;;;;7.20;2.47;;;23.50;99.90;;;;;;5068937;28;20229;-68
2022/05/26 02:28:02;;;;;;;4.73;2.40;;;24.50;99.90;;;;;;5074453;28;20291;-67
2022/05/26 02:30:36;;;;;;;4.10;2.20;;;24.90;99.90;;;;;;5074551;28;20176;-67
2022/05/26 02:33:08;;;;;;;3.07;1.77;;;23.90;99.90;;;;;;5074533;28;20233;-68
2022/05/26 02:35:50;;;;;;;3.17;1.60;;;23.70;99.90;;;;;;5073680;28;20241;-67
2022/05/26 02:38:23;;;;;;;3.47;1.70;;;23.40;99.90;;;;;;5054341;28;20689;-67
2022/05/26 02:40:53;;;;;;;2.77;1.57;;;22.80;99.90;;;;;;5072407;28;20731;-67
2022/05/26 02:43:27;;;;;;;2.83;1.43;;;22.90;99.90;;;;;;5075728;28;20211;-67
2022/05/26 02:46:17;;;;;;;6.87;1.60;;;23.10;99.90;;;;;;5080527;28;20645;-68
2022/05/26 02:49:11;;;;;;;1.97;1.10;;;23.90;99.90;;;;;;5073962;28;20180;-67
2022/05/26 02:51:53;;;;;;;5.53;1.83;;;23.90;99.90;;;;;;5074018;28;20669;-67
2022/05/26 02:54:41;;;;;;;4.03;1.00;;;24.80;99.90;;;;;;5073595;28;20180;-68
2022/05/26 02:57:14;;;;;;;2.87;1.37;;;24.60;99.90;;;;;;5073473;28;20180;-68
2022/05/26 02:59:51;;;;;;;2.13;0.90;;;24.60;99.90;;;;;;5073989;28;20661;-69
2022/05/26 03:02:47;;;;;;;3.80;1.00;;;25.00;99.90;;;;;;5073585;28;20222;-69
2022/05/26 03:05:24;;;;;;;1.73;0.73;;;25.20;99.90;;;;;;5062662;28;20207;-68
2022/05/26 03:07:57;;;;;;;4.37;0.87;;;24.90;99.90;;;;;;5073000;28;20213;-67
2022/05/26 03:10:32;;;;;;;2.60;1.10;;;24.20;99.90;;;;;;5063337;28;20263;-67
2022/05/26 03:13:01;;;;;;;3.53;1.00;;;23.10;99.90;;;;;;5074322;28;20582;-68
2022/05/26 03:15:30;;;;;;;3.80;1.30;;;23.70;99.90;;;;;;5074698;28;20598;-69
2022/05/26 03:18:02;;;;;;;4.37;1.27;;;23.60;99.90;;;;;;5074093;28;20224;-68
2022/05/26 03:20:30;;;;;;;3.57;1.10;;;24.50;99.90;;;;;;5054680;28;20172;-67
2022/05/26 03:22:57;;;;;;;4.30;1.10;;;24.90;99.90;;;;;;5064671;28;20195;-67
2022/05/26 03:25:25;;;;;;;3.57;0.93;;;25.40;99.90;;;;;;5072973;28;20695;-70
2022/05/26 03:27:52;;;;;;;5.13;1.10;;;24.50;99.90;;;;;;5074326;28;20266;-70
2022/05/26 03:30:20;;;;;;;3.20;1.10;;;24.00;99.90;;;;;;5074712;28;20175;-71
2022/05/26 03:32:48;;;;;;;1.37;0.73;;;23.80;99.90;;;;;;5074404;28;20180;-69
2022/05/26 03:40:50;;;;;;;1.47;0.83;;;25.50;99.90;;;;;;5074249;28;20202;-69
2022/05/26 03:43:18;;;;;;;2.97;0.83;;;25.70;99.90;;;;;;5074438;28;20172;-69
2022/05/26 03:45:47;;;;;;;4.40;1.30;;;25.20;99.90;;;;;;5074368;28;20164;-69
2022/05/26 03:48:14;;;;;;;3.30;1.00;;;25.70;99.90;;;;;;5073072;28;20186;-69
2022/05/26 03:50:41;;;;;;;1.37;0.87;;;26.00;99.90;;;;;;5074222;28;20183;-71
2022/05/26 03:53:09;;;;;;;4.27;1.20;;;25.40;99.90;;;;;;5074149;28;20230;-69
2022/05/26 03:55:37;;;;;;;5.37;1.00;;;25.30;99.90;;;;;;5073439;28;20224;-69
2022/05/26 03:58:05;;;;;;;4.60;0.90;;;25.70;99.90;;;;;;5074122;28;20168;-69
2022/05/26 04:00:33;;;;;;;3.23;0.80;;;25.70;99.90;;;;;;5074007;28;20172;-69
2022/05/26 04:03:00;;;;;;;3.63;0.80;;;25.40;99.90;;;;;;5073853;28;20544;-69
2022/05/26 04:05:28;;;;;;;2.93;0.93;;;25.60;99.90;;;;;;5073984;28;20214;-69
2022/05/26 04:07:55;;;;;;;2.10;1.00;;;25.80;99.90;;;;;;5074008;28;20179;-69
2022/05/26 04:10:23;;;;;;;3.13;0.70;;;26.10;99.90;;;;;;5073728;28;20249;-69
2022/05/26 04:12:50;;;;;;;1.73;0.77;;;25.70;99.90;;;;;;5073740;28;20259;-69
2022/05/26 04:15:19;;;;;;;2.50;0.97;;;25.20;99.90;;;;;;5073521;28;20187;-69
2022/05/26 04:17:46;;;;;;;1.93;0.60;;;25.00;99.90;;;;;;5073706;28;20685;-70
2022/05/26 04:20:17;;;;;;;4.13;1.23;;;24.80;99.90;;;;;;5073700;28;20180;-71
2022/05/26 04:22:44;;;;;;;4.50;0.70;;;24.90;99.90;;;;;;5072539;28;20641;-71
2022/05/26 04:25:13;;;;;;;3.63;0.90;;;24.30;99.90;;;;;;5073651;28;20168;-71
2022/05/26 04:27:40;;;;;;;4.17;1.00;;;24.80;99.90;;;;;;5072407;28;20180;-71
2022/05/26 04:30:10;;;;;;;3.40;0.97;;;25.20;99.90;;;;;;5073400;28;20259;-69
2022/05/26 04:32:39;;;;;;;1.53;0.77;;;25.40;99.90;;;;;;5073423;28;20172;-69
2022/05/26 04:35:10;;;;;;;7.63;1.03;;;25.70;99.90;;;;;;5073324;28;20208;-70
2022/05/26 04:37:38;;;;;;;3.23;1.10;;;25.80;99.90;;;;;;5073432;28;20180;-70
2022/05/26 04:40:07;;;;;;;1.97;0.53;;;25.70;99.90;;;;;;5073491;28;20221;-70
2022/05/26 04:42:36;;;;;;;1.83;0.70;;;25.50;99.90;;;;;;5073205;28;20249;-70
2022/05/26 04:45:05;;;;;;;6.00;1.43;;;25.50;99.90;;;;;;5073186;28;20187;-70
2022/05/26 04:47:32;;;;;;;3.10;1.00;;;25.20;99.90;;;;;;5073380;28;20187;-70
2022/05/26 04:49:59;;;;;;;3.93;1.00;;;25.40;99.90;;;;;;5073393;28;20255;-71
2022/05/26 04:52:27;;;;;;;4.87;0.80;;;25.50;99.90;;;;;;5073364;28;20254;-69
2022/05/26 04:54:54;;;;;;;3.73;1.07;;;25.50;99.90;;;;;;5072974;28;20179;-70
2022/05/26 04:57:24;;;;;;;6.27;1.10;;;25.30;99.90;;;;;;5073035;28;20182;-69
2022/05/26 04:59:52;;;;;;;4.63;0.80;;;25.40;99.90;;;;;;5073135;28;20191;-70
2022/05/26 05:02:24;;;;;;;3.50;1.00;;;25.50;99.90;;;;;;5073012;28;20226;-71
2022/05/26 05:04:52;;;;;;;3.67;0.90;;;25.30;99.90;;;;;;5073160;28;20629;-70
2022/05/26 05:07:19;;;;;;;2.90;0.90;;;25.30;99.90;;;;;;5073054;28;20210;-70
2022/05/26 05:09:48;;;;;;;0.40;0.40;;;25.50;99.90;;;;;;5072113;28;20233;-69
2022/05/26 05:12:18;;;;;;;1.27;0.60;;;25.30;99.90;;;;;;5073028;28;20237;-71
2022/05/26 05:14:49;;;;;;;4.13;1.37;;;24.80;99.90;;;;;;5073195;28;20176;-70
2022/05/26 05:17:18;;;;;;;1.73;0.87;;;24.10;99.90;;;;;;5072721;28;20220;-70
2022/05/26 05:19:47;;;;;;;1.10;0.63;;;24.00;99.90;;;;;;5073108;28;20172;-71
2022/05/26 05:22:39;;;;;;;0.97;0.63;;;24.00;99.90;;;;;;5071520;28;20223;-70
2022/05/26 05:25:11;;;;;;;1.63;0.70;;;23.70;99.90;;;;;;5071825;28;20194;-70
2022/05/26 05:27:47;;;;;;;0.93;0.70;;;23.50;99.90;;;;;;5072944;28;20236;-70
2022/05/26 05:30:21;;;;;;;4.77;0.90;;;22.90;99.90;;;;;;5072987;28;20255;-70
2022/05/26 05:32:58;;;;;;;1.47;0.83;;;22.30;99.90;;;;;;5070910;28;20546;-71
2022/05/26 05:35:55;;;;;;;2.90;0.90;;;22.20;99.90;;;;;;5072153;28;20175;-70
2022/05/26 05:38:22;;;;;;;2.83;1.23;;;22.00;99.90;;;;;;5072158;28;20241;-69
2022/05/26 05:40:50;;;;;;;2.37;0.83;;;21.80;99.90;;;;;;5072191;28;20241;-70
2022/05/26 05:43:17;;;;;;;2.40;1.10;;;21.60;99.90;;;;;;5071958;28;20179;-70
2022/05/26 05:45:45;;;;;;;2.40;1.20;;;21.40;99.90;;;;;;5072233;28;20172;-70
2022/05/26 05:48:13;;;;;;;1.90;0.97;;;21.30;99.90;;;;;;5072301;28;20534;-70
2022/05/26 05:50:40;;;;;;;2.00;0.90;;;21.20;99.90;;;;;;5072258;28;20176;-70
2022/05/26 05:53:09;;;;;;;2.17;0.90;;;21.10;99.90;;;;;;5072135;28;20172;-71
2022/05/26 05:55:36;;;;;;;2.77;1.20;;;21.00;99.90;;;;;;5072203;28;20173;-70
2022/05/26 05:58:07;;;;;;;1.17;0.90;;;20.80;99.90;;;;;;5072435;28;20614;-70
2022/05/26 06:00:35;;;;;;;1.27;0.90;;;20.70;99.90;;;;;;5071012;28;20172;-70
2022/05/26 06:03:03;;;;;;;4.17;1.10;;;20.60;99.90;;;;;;5072013;28;20191;-70
2022/05/26 06:05:31;;;;;;;4.40;1.00;;;20.50;99.90;;;;;;5071794;28;20180;-70
2022/05/26 06:07:59;;;;;;;3.07;1.13;;;20.60;99.90;;;;;;5072142;28;20179;-70
2022/05/26 06:10:27;;;;;;;3.63;1.20;;;20.60;99.90;;;;;;5070515;28;20179;-69
2022/05/26 06:12:54;;;;;;;2.13;1.40;;;20.40;99.90;;;;;;5070476;28;20175;-70
2022/05/26 06:15:21;;;;;;;3.50;1.10;;;20.30;99.90;;;;;;5070509;28;20194;-71
2022/05/26 06:17:48;;;;;;;1.50;1.10;;;20.10;99.90;;;;;;5071937;28;20677;-70
2022/05/26 06:20:16;;;;;;;9.20;2.13;;;20.10;99.90;;;;;;5075235;28;20184;-70
2022/05/26 06:22:47;;;;;;;3.10;1.17;;;19.90;99.90;;;;;;5075188;28;20288;-69
2022/05/26 06:25:17;;;;;;;2.33;1.23;;;19.80;99.90;;;;;;5074090;28;20186;-69
2022/05/26 06:30:31;;;;;;;2.37;1.37;;;19.60;99.90;;;;;;5075745;28;20678;-70
2022/05/26 06:38:42;;;;;;;1.17;0.90;;;19.30;99.90;;;;;;5075534;28;20338;-69
2022/05/26 06:43:58;;;;;;;3.47;1.13;;;19.00;99.90;;;;;;5075291;28;20207;-70
2022/05/26 06:46:25;;;;;;;1.60;1.10;;;18.80;99.90;;;;;;5075147;28;20180;-69
2022/05/26 06:48:53;;;;;;;2.00;1.20;;;18.70;99.90;;;;;;5074978;28;20725;-69
2022/05/26 06:51:24;;;;;;;2.70;1.13;;;18.60;99.90;;;;;;5074091;28;20365;-68
2022/05/26 06:53:53;;;;;;;2.17;1.40;;;18.50;99.90;;;;;;5073836;28;20233;-67
2022/05/26 06:56:20;;;;;;;2.43;1.50;;;18.40;99.90;;;;;;5073149;28;20184;-67
2022/05/26 06:58:47;;;;;;;2.47;1.40;;;18.30;99.90;;;;;;5074655;28;20533;-68
2022/05/26 07:01:15;;;;;;;2.67;1.70;;;18.10;99.90;;;;;;5074592;28;20307;-69
2022/05/26 07:03:43;;;;;;;6.17;1.50;;;18.00;99.90;;;;;;5072855;28;20644;-68
2022/05/26 07:06:22;;;;;;;5.30;1.93;;;17.90;99.90;;;;;;5074370;28;20192;-68
2022/05/26 07:08:50;;;;;;;3.00;1.87;;;17.80;99.90;;;;;;5073954;28;20183;-70
2022/05/26 07:11:18;;;;;;;3.33;1.70;;;17.70;99.90;;;;;;5070282;28;20211;-68
2022/05/26 07:13:46;;;;;;;3.50;1.83;;;17.60;99.90;;;;;;5064191;28;20191;-68
2022/05/26 07:16:15;;;;;;;3.90;2.00;;;17.60;99.90;;;;;;5072398;28;20223;-70
2022/05/26 07:18:43;;;;;;;6.70;2.27;;;17.50;99.90;;;;;;5065114;28;20567;-69
2022/05/26 07:21:11;;;;;;;3.33;1.90;;;17.40;99.90;;;;;;5070253;28;20220;-69
2022/05/26 07:23:38;;;;;;;5.13;2.03;;;17.20;99.90;;;;;;5072366;28;20183;-69
2022/05/26 07:26:08;;;;;;;5.67;2.10;;;17.20;99.90;;;;;;5072646;28;20172;-69
2022/05/26 07:28:36;;;;;;;2.90;1.80;;;17.10;99.90;;;;;;5073019;28;20500;-69
2022/05/26 07:31:04;;;;;;;3.80;1.93;;;17.00;99.90;;;;;;5071642;28;20269;-69
2022/05/26 07:33:31;;;;;;;4.93;2.10;;;16.90;99.90;;;;;;5071992;28;20179;-68
2022/05/26 07:35:58;;;;;;;4.33;2.17;;;16.90;99.90;;;;;;5080420;28;20180;-68
2022/05/26 07:41:27;;;;;;;2.07;1.60;;;16.70;99.90;;;;;;5072711;28;20208;-68
2022/05/26 07:43:59;;;;;;;5.43;2.43;;;16.60;99.90;;;;;;5072862;28;20321;-67
2022/05/26 07:46:27;;;;;;;5.17;2.27;;;16.60;99.90;;;;;;5072792;28;20233;-68
2022/05/26 07:48:54;;;;;;;4.40;2.23;;;16.50;99.90;;;;;;5072722;28;20179;-68
2022/05/26 07:51:22;;;;;;;11.00;2.00;;;16.50;99.90;;;;;;5072429;28;20194;-68
2022/05/26 07:53:50;;;;;;;3.97;1.63;;;16.40;99.90;;;;;;5072317;28;20191;-68
2022/05/26 07:56:18;;;;;;;5.67;2.10;;;16.30;99.90;;;;;;5071997;28;20236;-69
2022/05/26 07:58:47;;;;;;;7.00;2.20;;;16.30;99.90;;;;;;5072249;28;20180;-69
2022/05/26 08:01:15;;;;;;;3.27;1.90;;;16.30;99.90;;;;;;5072289;28;20208;-69
2022/05/26 08:03:42;;;;;;;4.80;2.00;;;16.30;99.90;;;;;;5072100;28;20219;-69
2022/05/26 08:06:10;;;;;;;9.07;3.00;;;16.20;99.90;;;;;;5071636;28;20625;-68
2022/05/26 08:08:37;;;;;;;8.47;3.23;;;16.30;99.90;;;;;;5071730;28;20191;-69
2022/05/26 08:11:05;;;;;;;7.33;2.73;;;16.30;99.90;;;;;;5071720;28;20335;-68
2022/05/26 08:13:32;;;;;;;6.90;3.63;;;16.40;99.90;;;;;;5071965;28;20176;-69
2022/05/26 08:16:00;;;;;;;7.90;2.90;;;16.40;99.90;;;;;;5071061;28;20306;-69
2022/05/26 08:18:27;;;;;;;5.70;2.97;;;16.40;99.90;;;;;;5068881;28;20597;-68
2022/05/26 08:20:55;;;;;;;4.80;3.20;;;16.30;99.90;;;;;;5071783;28;20292;-70
2022/05/26 08:23:25;;;;;;;5.80;2.80;;;16.30;99.90;;;;;;5080365;28;20544;-69
2022/05/26 08:25:53;;;;;;;4.83;2.80;;;16.20;99.90;;;;;;5077296;28;20188;-69
2022/05/26 08:28:20;;;;;;;5.33;3.07;;;16.20;99.90;;;;;;5071793;28;20625;-68
2022/05/26 08:30:47;;;;;;;5.33;2.80;;;16.10;99.90;;;;;;5071174;28;20219;-67
2022/05/26 08:33:15;;;;;;;5.40;3.47;;;16.10;99.90;;;;;;5071542;28;20179;-68
2022/05/26 08:35:42;;;;;;;4.80;2.90;;;16.00;99.90;;;;;;5071345;28;20186;-69
2022/05/26 08:38:10;;;;;;;3.10;2.70;;;15.90;99.90;;;;;;5070698;28;20302;-68
2022/05/26 08:40:40;;;;;;;7.77;3.23;;;15.80;99.90;;;;;;5069904;28;20664;-68
2022/05/26 08:43:16;;;;;;;5.47;2.97;;;15.80;99.90;;;;;;5069181;28;20183;-68
2022/05/26 08:45:50;;;;;;;5.43;2.63;;;15.70;99.90;;;;;;5070076;28;20336;-68
2022/05/26 08:48:52;;;;;;;5.10;2.40;;;15.60;99.90;;;;;;5070101;28;20701;-69
2022/05/26 08:51:43;;;;;;;4.83;3.00;;;15.50;99.90;;;;;;5070589;28;20192;-69
2022/05/26 08:54:25;;;;;;;6.67;2.93;;;15.50;99.90;;;;;;5070812;28;20176;-69
2022/05/26 08:56:55;;;;;;;4.23;2.73;;;15.50;99.90;;;;;;5071367;28;20258;-69
2022/05/26 08:59:35;;;;;;;5.73;2.50;;;15.40;99.90;;;;;;5052208;28;20211;-70
2022/05/26 09:02:03;;;;;;;6.53;2.90;;;15.30;99.90;;;;;;5068099;28;20212;-69
2022/05/26 09:04:30;;;;;;;5.23;3.27;;;15.30;99.90;;;;;;5070816;28;20180;-69
2022/05/26 09:12:59;;;;;;;8.67;3.40;;;15.10;99.90;;;;;;5071230;28;20179;-69
2022/05/26 09:15:29;;;;;;;4.20;3.60;;;15.00;99.90;;;;;;5070423;28;20180;-69
2022/05/26 09:17:56;;;;;;;6.20;3.57;;;15.00;99.90;;;;;;5070719;28;20345;-69
2022/05/26 09:20:35;;;;;;;5.23;3.33;;;15.00;99.90;;;;;;5071046;28;20182;-68
2022/05/26 09:23:25;;;;;;;4.53;3.00;;;14.90;99.90;;;;;;5071082;28;20269;-68
2022/05/26 09:26:11;;;;;;;10.97;3.93;;;14.90;99.90;;;;;;5071176;28;20184;-69
2022/05/26 09:28:38;;;;;;;5.53;3.10;;;14.90;99.90;;;;;;5070981;28;20241;-69
2022/05/26 09:31:21;;;;;;;5.20;3.63;;;14.90;99.90;;;;;;5069933;28;20649;-70
2022/05/26 09:34:17;;;;;;;9.07;5.27;;;14.80;99.90;;;;;;5071246;28;20175;-69
2022/05/26 09:36:59;;;;;;;10.07;4.60;;;14.90;99.90;;;;;;5070884;28;20172;-67
2022/05/26 09:39:41;;;;;;;7.00;4.07;;;14.80;99.90;;;;;;5070973;28;20179;-68
2022/05/26 09:42:29;;;;;;;12.10;4.73;;;14.80;99.90;;;;;;5071254;28;20212;-68
2022/05/26 09:45:07;;;;;;;5.80;3.80;;;14.80;99.90;;;;;;5071073;28;20229;-69
2022/05/26 09:47:55;;;;;;;6.53;3.80;;;14.80;99.90;;;;;;5070445;28;20187;-68
2022/05/26 09:50:48;;;;;;;8.67;4.30;;;14.70;99.90;;;;;;5070857;28;20180;-70
2022/05/26 09:53:29;;;;;;;11.53;4.57;;;14.60;99.90;;;;;;5071060;28;20537;-69
2022/05/26 09:55:57;;;;;;;6.27;4.70;;;14.60;99.90;;;;;;5074536;28;20180;-69
2022/05/26 09:58:30;;;;;;;6.77;4.70;;;14.60;99.90;;;;;;5074616;28;20723;-69
2022/05/26 10:01:25;;;;;;;9.17;6.17;;;14.60;99.90;;;;;;5071908;28;20679;-69
2022/05/26 10:04:31;;;;;;;7.73;5.40;;;14.70;99.90;;;;;;5055885;28;20188;-68
2022/05/26 10:07:01;;;;;;;12.07;5.40;;;14.60;99.90;;;;;;5070400;28;20199;-69
2022/05/26 10:10:16;;;;;;;6.13;4.77;;;14.50;99.90;;;;;;5072808;28;20203;-69
2022/05/26 10:12:59;;;;;;;11.47;6.00;;;14.50;99.90;;;;;;5072639;28;20212;-69
2022/05/26 10:15:39;;;;;;;6.97;5.00;;;14.50;99.90;;;;;;5073624;28;20187;-70
2022/05/26 10:18:15;;;;;;;7.87;4.83;;;14.40;99.90;;;;;;5074056;28;20747;-70
2022/05/26 10:20:42;;;;;;;11.37;5.57;;;14.30;99.90;;;;;;5073731;28;20641;-69
2022/05/26 10:23:41;;;;;;;8.20;5.30;;;14.40;99.90;;;;;;5074395;28;20265;-69
2022/05/26 10:26:15;;;;;;;10.97;6.40;;;14.40;99.90;;;;;;5057408;28;20188;-69
2022/05/26 10:29:02;;;;;;;14.87;6.37;;;14.50;99.90;;;;;;5072297;28;20198;-70
2022/05/26 10:31:39;;;;;;;8.10;4.93;;;14.50;99.90;;;;;;5074096;28;20190;-69
2022/05/26 10:34:14;;;;;;;9.87;5.97;;;14.60;99.90;;;;;;5074079;28;20714;-69
2022/05/26 10:36:59;;;;;;;7.03;5.13;;;14.40;99.90;;;;;;5072465;28;20856;-68
2022/05/26 10:39:54;;;;;;;8.33;4.90;;;14.30;99.90;;;;;;5074051;28;20180;-69
2022/05/26 10:42:31;;;;;;;8.37;4.80;;;14.10;99.90;;;;;;5073590;28;20223;-68
2022/05/26 10:45:17;;;;;;;8.83;4.83;;;14.10;99.90;;;;;;5074136;28;20250;-70
2022/05/26 10:48:02;;;;;;;7.97;5.53;;;14.00;99.90;;;;;;5073438;28;20190;-69
2022/05/26 10:50:45;;;;;;;14.20;7.87;;;14.00;99.90;;;;;;5073504;28;20190;-68
2022/05/26 10:53:26;;;;;;;10.27;6.80;;;14.00;99.90;;;;;;5073705;28;20277;-70
2022/05/26 10:56:07;;;;;;;13.60;6.63;;;14.00;99.90;;;;;;5072484;28;20219;-70
2022/05/26 10:58:46;;;;;;;15.30;7.07;;;14.00;99.90;;;;;;5073696;28;20195;-69
2022/05/26 11:01:48;;;;;;;10.73;7.37;;;13.90;99.90;;;;;;5073897;28;20329;-70
2022/05/26 11:04:21;;;;;;;8.23;6.57;;;13.80;99.90;;;;;;5061527;28;20187;-68
2022/05/26 11:06:51;;;;;;;9.43;6.37;;;13.70;99.90;;;;;;5072990;28;20180;-69
2022/05/26 11:09:34;;;;;;;10.67;6.93;;;13.70;99.90;;;;;;5073533;28;20176;-69
2022/05/26 11:12:17;;;;;;;9.90;6.67;;;13.70;99.90;;;;;;5058385;28;20672;-70
2022/05/26 11:18:32;;;;;;;10.87;6.80;;;13.60;99.90;;;;;;5058714;28;20235;-68
2022/05/26 11:20:59;;;;;;;11.17;6.43;;;13.60;99.90;;;;;;5069431;28;20206;-69
2022/05/26 11:23:31;;;;;;;10.97;6.33;;;13.70;99.90;;;;;;5072929;28;20187;-69
2022/05/26 11:26:04;;;;;;;10.33;5.90;;;13.70;99.90;;;;;;5072449;28;20263;-69
2022/05/26 11:28:31;;;;;;;8.20;5.47;;;13.60;99.90;;;;;;5073080;28;20710;-70
2022/05/26 11:37:03;;;;;;;10.30;6.33;;;13.60;99.90;;;;;;5072863;28;20276;-69
2022/05/26 11:39:36;;;;;;;9.67;6.37;;;13.50;99.90;;;;;;5057186;28;20943;-69
2022/05/26 11:42:24;;;;;;;8.13;5.90;;;13.40;99.90;;;;;;5072945;28;20215;-69
2022/05/26 11:45:26;;;;;;;9.00;6.33;;;13.40;99.90;;;;;;5072846;28;20255;-69
2022/05/26 11:48:25;;;;;;;10.47;7.40;;;13.30;99.90;;;;;;5072704;28;20194;-70
2022/05/26 11:51:02;;;;;;;11.40;7.73;;;13.30;99.90;;;;;;5061991;28;20192;-69
2022/05/26 11:53:32;;;;;;;12.00;7.40;;;13.20;99.90;;;;;;5071911;28;20184;-69
2022/05/26 11:56:24;;;;;;;7.13;5.90;;;13.20;99.90;;;;;;5072010;28;20187;-69
2022/05/26 11:59:19;;;;;;;13.73;7.60;;;13.10;99.90;;;;;;5068351;28;20207;-68
2022/05/26 12:01:47;;;;;;;12.47;8.30;;;13.10;99.90;;;;;;5072406;28;20676;-70
2022/05/26 12:04:36;;;;;;;11.77;8.67;;;13.10;99.90;;;;;;5050897;28;20187;-68
2022/05/26 12:07:21;;;;;;;12.83;7.77;;;13.10;99.90;;;;;;5066045;28;20540;-68
2022/05/26 12:09:54;;;;;;;10.90;8.10;;;13.10;99.90;;;;;;5070850;28;20267;-68
2022/05/26 12:12:24;;;;;;;12.40;7.77;;;13.10;99.90;;;;;;5071465;28;20187;-68
2022/05/26 12:14:54;;;;;;;9.40;7.47;;;13.00;99.90;;;;;;5072033;28;20641;-68
2022/05/26 12:17:40;;;;;;;12.77;8.80;;;13.00;99.90;;;;;;5069839;28;20239;-68
2022/05/26 12:20:13;;;;;;;15.03;8.97;;;13.00;99.90;;;;;;5069896;28;20214;-68
2022/05/26 12:22:53;;;;;;;15.10;9.93;;;13.00;99.90;;;;;;5071965;28;20243;-68
2022/05/26 12:25:37;;;;;;;19.20;12.90;;;13.10;99.90;;;;;;5070350;28;20185;-68
2022/05/26 12:28:27;;;;;;;16.87;11.23;;;13.20;99.90;;;;;;5071895;28;20578;-68
2022/05/26 12:30:54;;;;;;;20.90;13.07;;;13.20;99.90;;;;;;5052043;28;20176;-68
2022/05/26 12:33:38;;;;;;;20.00;13.17;;;13.20;99.90;;;;;;5071077;28;20709;-68
2022/05/26 12:36:26;;;;;;;30.77;12.10;;;13.20;99.90;;;;;;5071440;28;20169;-68
2022/05/26 12:39:30;;;;;;;17.90;11.00;;;13.10;99.90;;;;;;5070290;28;20186;-68
2022/05/26 12:42:29;;;;;;;16.97;10.20;;;13.10;99.90;;;;;;5070724;28;20280;-67
2022/05/26 12:45:36;;;;;;;12.83;9.20;;;13.10;99.90;;;;;;5059038;28;20603;-67
2022/05/26 12:48:19;;;;;;;13.07;8.73;;;13.00;99.90;;;;;;5070603;28;20635;-68
2022/05/26 12:50:46;;;;;;;13.70;8.53;;;12.90;99.90;;;;;;5051650;28;20180;-68
2022/05/26 12:53:27;;;;;;;12.37;9.23;;;12.90;99.90;;;;;;5050657;28;20183;-67
2022/05/26 12:56:00;;;;;;;11.27;8.60;;;12.90;99.90;;;;;;5055025;28;20263;-68
2022/05/26 12:58:36;;;;;;;11.23;8.37;;;12.80;99.90;;;;;;5071764;28;20261;-68
2022/05/26 13:01:11;;;;;;;16.03;9.70;;;12.70;99.90;;;;;;5071574;28;20233;-68
2022/05/26 13:03:56;;;;;;;16.63;10.17;;;12.70;99.90;;;;;;5071610;28;20186;-68
2022/05/26 13:06:26;;;;;;;12.03;9.20;;;12.60;99.90;;;;;;5071646;28;20167;-68
2022/05/26 13:09:14;;;;;;;16.77;9.03;;;12.60;99.90;;;;;;5071246;28;20183;-68
2022/05/26 13:12:08;;;;;;;16.60;9.67;;;12.60;99.90;;;;;;5071259;28;20244;-68
2022/05/26 13:15:08;;;;;;;11.47;8.53;;;12.70;99.90;;;;;;5070543;28;20191;-68
2022/05/26 13:17:48;;;;;;;11.50;8.47;;;12.80;99.90;;;;;;5066289;28;20306;-68
2022/05/26 13:20:41;;;;;;;11.90;8.53;;;12.80;99.90;;;;;;5071166;28;20183;-67
2022/05/26 13:23:10;;;;;;;16.67;9.53;;;12.70;99.90;;;;;;5070472;28;20198;-68
2022/05/26 13:25:38;;;;;;;12.63;9.00;;;12.60;99.90;;;;;;5072073;28;20271;-68
2022/05/26 13:28:08;;;;;;;14.30;8.93;;;12.50;99.90;;;;;;5072015;28;20182;-69
2022/05/26 13:33:41;;;;;;;11.67;9.00;;;12.40;99.90;;;;;;5076587;28;20323;-68
2022/05/26 13:36:36;;;;;;;22.00;10.10;;;12.40;99.90;;;;;;5076224;28;20193;-68
2022/05/26 13:39:16;;;;;;;17.27;9.67;;;12.40;99.90;;;;;;5075937;28;20194;-69
2022/05/26 13:41:48;;;;;;;15.77;9.73;;;12.30;99.90;;;;;;5076449;28;20291;-68
2022/05/26 13:44:35;;;;;;;17.17;10.23;;;12.40;99.90;;;;;;5076579;28;20178;-69
2022/05/26 13:47:05;;;;;;;13.30;8.43;;;12.40;99.90;;;;;;5076454;28;20652;-69
2022/05/26 13:49:38;;;;;;;15.00;8.80;;;12.40;99.90;;;;;;5075959;28;20565;-69
2022/05/26 13:52:16;;;;;;;13.00;10.03;;;12.30;99.90;;;;;;5076332;28;20175;-69
2022/05/26 13:54:57;;;;;;;13.70;9.60;;;12.30;99.90;;;;;;5075979;28;20186;-69
2022/05/26 13:57:40;;;;;;;10.77;8.70;;;12.20;99.90;;;;;;5076620;28;20177;-69
2022/05/26 14:00:29;;;;;;;13.90;9.07;;;12.20;99.90;;;;;;5076199;28;20244;-70
2022/05/26 14:03:02;;;;;;;15.33;9.33;;;12.10;99.90;;;;;;5075933;28;20230;-69